sensor_id;sensor_type;location;lat;lon;timestamp;temperature;humidity
47414;DHT22;33163;0.000;0.000;2023-06-14T00:00:15;23.90;54.20
47414;DHT22;33163;0.000;0.000;2023-06-14T00:02:42;23.90;54.20
47414;DHT22;33163;0.000;0.000;2023-06-14T00:05:08;24.00;54.30
47414;DHT22;33163;0.000;0.000;2023-06-14T00:07:39;23.90;54.10
47414;DHT22;33163;0.000;0.000;2023-06-14T00:10:08;23.90;54.20
47414;DHT22;33163;0.000;0.000;2023-06-14T00:12:37;23.90;54.20
47414;DHT22;33163;0.000;0.000;2023-06-14T00:15:05;23.90;54.20
47414;DHT22;33163;0.000;0.000;2023-06-14T00:17:32;23.90;54.20
47414;DHT22;33163;0.000;0.000;2023-06-14T00:19:59;23.90;54.20
47414;DHT22;33163;0.000;0.000;2023-06-14T00:22:30;23.90;54.20
47414;DHT22;33163;0.000;0.000;2023-06-14T00:24:58;23.90;54.20
47414;DHT22;33163;0.000;0.000;2023-06-14T00:27:25;23.90;54.20
47414;DHT22;33163;0.000;0.000;2023-06-14T00:29:53;23.90;54.20
47414;DHT22;33163;0.000;0.000;2023-06-14T00:32:20;23.90;54.20
47414;DHT22;33163;0.000;0.000;2023-06-14T00:34:51;23.90;54.20
47414;DHT22;33163;0.000;0.000;2023-06-14T00:37:17;23.90;54.20
47414;DHT22;33163;0.000;0.000;2023-06-14T00:39:44;23.80;54.30
47414;DHT22;33163;0.000;0.000;2023-06-14T00:42:11;23.90;54.30
47414;DHT22;33163;0.000;0.000;2023-06-14T00:44:37;23.90;54.20
47414;DHT22;33163;0.000;0.000;2023-06-14T00:47:06;23.80;54.20
47414;DHT22;33163;0.000;0.000;2023-06-14T00:49:33;23.80;54.30
47414;DHT22;33163;0.000;0.000;2023-06-14T00:51:59;23.90;54.30
47414;DHT22;33163;0.000;0.000;2023-06-14T00:54:27;23.80;54.30
47414;DHT22;33163;0.000;0.000;2023-06-14T00:56:54;23.90;54.20
47414;DHT22;33163;0.000;0.000;2023-06-14T00:59:21;23.90;54.20
47414;DHT22;33163;0.000;0.000;2023-06-14T01:01:48;23.90;54.30
47414;DHT22;33163;0.000;0.000;2023-06-14T01:04:16;23.80;54.20
47414;DHT22;33163;0.000;0.000;2023-06-14T01:06:47;23.90;54.40
47414;DHT22;33163;0.000;0.000;2023-06-14T01:09:21;23.80;54.10
47414;DHT22;33163;0.000;0.000;2023-06-14T01:11:54;23.80;54.30
47414;DHT22;33163;0.000;0.000;2023-06-14T01:14:25;23.80;54.20
47414;DHT22;33163;0.000;0.000;2023-06-14T01:16:52;23.80;54.10
47414;DHT22;33163;0.000;0.000;2023-06-14T01:19:22;23.90;54.40
47414;DHT22;33163;0.000;0.000;2023-06-14T01:21:51;23.80;54.50
47414;DHT22;33163;0.000;0.000;2023-06-14T01:24:19;23.90;54.20
47414;DHT22;33163;0.000;0.000;2023-06-14T01:26:53;23.80;54.10
47414;DHT22;33163;0.000;0.000;2023-06-14T01:29:22;23.90;54.20
47414;DHT22;33163;0.000;0.000;2023-06-14T01:31:49;23.80;54.10
47414;DHT22;33163;0.000;0.000;2023-06-14T01:34:16;23.80;54.10
47414;DHT22;33163;0.000;0.000;2023-06-14T01:36:44;23.80;53.90
47414;DHT22;33163;0.000;0.000;2023-06-14T01:39:14;23.80;53.90
47414;DHT22;33163;0.000;0.000;2023-06-14T01:41:43;23.80;53.80
47414;DHT22;33163;0.000;0.000;2023-06-14T01:44:12;23.90;54.00
47414;DHT22;33163;0.000;0.000;2023-06-14T01:46:41;23.80;53.80
47414;DHT22;33163;0.000;0.000;2023-06-14T01:49:08;23.80;53.70
47414;DHT22;33163;0.000;0.000;2023-06-14T01:51:35;23.80;53.50
47414;DHT22;33163;0.000;0.000;2023-06-14T01:54:02;23.80;53.60
47414;DHT22;33163;0.000;0.000;2023-06-14T01:56:28;23.80;54.20
47414;DHT22;33163;0.000;0.000;2023-06-14T01:58:57;23.80;53.30
47414;DHT22;33163;0.000;0.000;2023-06-14T02:01:23;23.80;53.50
47414;DHT22;33163;0.000;0.000;2023-06-14T02:03:50;23.80;53.50
47414;DHT22;33163;0.000;0.000;2023-06-14T02:06:17;23.80;53.50
47414;DHT22;33163;0.000;0.000;2023-06-14T02:08:44;23.80;53.40
47414;DHT22;33163;0.000;0.000;2023-06-14T02:11:10;23.80;53.30
47414;DHT22;33163;0.000;0.000;2023-06-14T02:13:37;23.70;53.20
47414;DHT22;33163;0.000;0.000;2023-06-14T02:16:05;23.80;53.20
47414;DHT22;33163;0.000;0.000;2023-06-14T02:18:32;23.70;53.20
47414;DHT22;33163;0.000;0.000;2023-06-14T02:20:59;23.70;53.10
47414;DHT22;33163;0.000;0.000;2023-06-14T02:23:26;23.70;53.10
47414;DHT22;33163;0.000;0.000;2023-06-14T02:25:52;23.70;53.00
47414;DHT22;33163;0.000;0.000;2023-06-14T02:28:19;23.70;53.00
47414;DHT22;33163;0.000;0.000;2023-06-14T02:30:46;23.70;53.00
47414;DHT22;33163;0.000;0.000;2023-06-14T02:33:14;23.70;52.90
47414;DHT22;33163;0.000;0.000;2023-06-14T02:35:41;23.70;52.80
47414;DHT22;33163;0.000;0.000;2023-06-14T02:38:07;23.70;52.80
47414;DHT22;33163;0.000;0.000;2023-06-14T02:40:34;23.70;52.70
47414;DHT22;33163;0.000;0.000;2023-06-14T02:43:01;23.70;52.80
47414;DHT22;33163;0.000;0.000;2023-06-14T02:45:27;23.70;52.70
47414;DHT22;33163;0.000;0.000;2023-06-14T02:47:54;23.70;52.70
47414;DHT22;33163;0.000;0.000;2023-06-14T02:50:23;23.70;52.60
47414;DHT22;33163;0.000;0.000;2023-06-14T02:52:50;23.70;52.50
47414;DHT22;33163;0.000;0.000;2023-06-14T02:55:18;23.60;52.60
47414;DHT22;33163;0.000;0.000;2023-06-14T02:57:45;23.60;52.50
47414;DHT22;33163;0.000;0.000;2023-06-14T03:00:13;23.70;52.50
47414;DHT22;33163;0.000;0.000;2023-06-14T03:02:40;23.70;52.40
47414;DHT22;33163;0.000;0.000;2023-06-14T03:05:08;23.60;52.30
47414;DHT22;33163;0.000;0.000;2023-06-14T03:07:36;23.60;52.50
47414;DHT22;33163;0.000;0.000;2023-06-14T03:10:07;23.70;52.40
47414;DHT22;33163;0.000;0.000;2023-06-14T03:12:34;23.60;52.40
47414;DHT22;33163;0.000;0.000;2023-06-14T03:15:02;23.60;52.50
47414;DHT22;33163;0.000;0.000;2023-06-14T03:17:29;23.60;52.40
47414;DHT22;33163;0.000;0.000;2023-06-14T03:19:59;23.60;52.30
47414;DHT22;33163;0.000;0.000;2023-06-14T03:22:26;23.60;52.30
47414;DHT22;33163;0.000;0.000;2023-06-14T03:24:55;23.60;52.30
47414;DHT22;33163;0.000;0.000;2023-06-14T03:27:22;23.60;52.20
47414;DHT22;33163;0.000;0.000;2023-06-14T03:29:49;23.60;52.90
47414;DHT22;33163;0.000;0.000;2023-06-14T03:32:15;23.50;52.10
47414;DHT22;33163;0.000;0.000;2023-06-14T03:34:42;23.60;52.10
47414;DHT22;33163;0.000;0.000;2023-06-14T03:37:10;23.50;52.10
47414;DHT22;33163;0.000;0.000;2023-06-14T03:39:37;23.60;52.10
47414;DHT22;33163;0.000;0.000;2023-06-14T03:42:13;23.50;52.10
47414;DHT22;33163;0.000;0.000;2023-06-14T03:44:39;23.50;52.10
47414;DHT22;33163;0.000;0.000;2023-06-14T03:47:06;23.50;52.10
47414;DHT22;33163;0.000;0.000;2023-06-14T03:49:33;23.50;52.10
47414;DHT22;33163;0.000;0.000;2023-06-14T03:52:00;23.50;52.00
47414;DHT22;33163;0.000;0.000;2023-06-14T03:54:27;23.50;52.00
47414;DHT22;33163;0.000;0.000;2023-06-14T03:56:55;23.50;52.00
47414;DHT22;33163;0.000;0.000;2023-06-14T03:59:23;23.50;51.90
47414;DHT22;33163;0.000;0.000;2023-06-14T04:01:51;23.50;52.00
47414;DHT22;33163;0.000;0.000;2023-06-14T04:04:18;23.50;52.00
47414;DHT22;33163;0.000;0.000;2023-06-14T04:06:46;23.50;52.00
47414;DHT22;33163;0.000;0.000;2023-06-14T04:09:13;23.50;52.00
47414;DHT22;33163;0.000;0.000;2023-06-14T04:11:40;23.50;52.00
47414;DHT22;33163;0.000;0.000;2023-06-14T04:14:07;23.50;52.00
47414;DHT22;33163;0.000;0.000;2023-06-14T04:16:35;23.50;51.90
47414;DHT22;33163;0.000;0.000;2023-06-14T04:19:02;23.50;52.00
47414;DHT22;33163;0.000;0.000;2023-06-14T04:21:28;23.40;52.00
47414;DHT22;33163;0.000;0.000;2023-06-14T04:23:55;23.40;51.90
47414;DHT22;33163;0.000;0.000;2023-06-14T04:26:22;23.50;51.90
47414;DHT22;33163;0.000;0.000;2023-06-14T04:28:55;23.40;51.80
47414;DHT22;33163;0.000;0.000;2023-06-14T04:31:22;23.50;51.80
47414;DHT22;33163;0.000;0.000;2023-06-14T04:33:51;23.40;51.80
47414;DHT22;33163;0.000;0.000;2023-06-14T04:36:19;23.40;51.80
47414;DHT22;33163;0.000;0.000;2023-06-14T04:38:46;23.40;51.80
47414;DHT22;33163;0.000;0.000;2023-06-14T04:41:14;23.40;51.80
47414;DHT22;33163;0.000;0.000;2023-06-14T04:43:41;23.40;51.80
47414;DHT22;33163;0.000;0.000;2023-06-14T04:46:08;23.40;51.80
47414;DHT22;33163;0.000;0.000;2023-06-14T04:48:36;23.40;51.80
47414;DHT22;33163;0.000;0.000;2023-06-14T04:51:06;23.40;51.80
47414;DHT22;33163;0.000;0.000;2023-06-14T04:53:33;23.40;51.80
47414;DHT22;33163;0.000;0.000;2023-06-14T04:56:00;23.40;51.70
47414;DHT22;33163;0.000;0.000;2023-06-14T04:58:28;23.40;51.80
47414;DHT22;33163;0.000;0.000;2023-06-14T05:00:55;23.40;51.80
47414;DHT22;33163;0.000;0.000;2023-06-14T05:03:22;23.40;51.80
47414;DHT22;33163;0.000;0.000;2023-06-14T05:05:49;23.40;51.70
47414;DHT22;33163;0.000;0.000;2023-06-14T05:08:20;23.40;51.80
47414;DHT22;33163;0.000;0.000;2023-06-14T05:10:49;23.40;51.80
47414;DHT22;33163;0.000;0.000;2023-06-14T05:13:15;23.40;51.80
47414;DHT22;33163;0.000;0.000;2023-06-14T05:15:42;23.40;51.70
47414;DHT22;33163;0.000;0.000;2023-06-14T05:18:09;23.40;51.70
47414;DHT22;33163;0.000;0.000;2023-06-14T05:20:36;23.40;51.70
47414;DHT22;33163;0.000;0.000;2023-06-14T05:23:03;23.40;51.80
47414;DHT22;33163;0.000;0.000;2023-06-14T05:25:31;23.40;51.70
47414;DHT22;33163;0.000;0.000;2023-06-14T05:27:58;23.40;51.80
47414;DHT22;33163;0.000;0.000;2023-06-14T05:30:25;23.40;51.80
47414;DHT22;33163;0.000;0.000;2023-06-14T05:32:52;23.40;51.00
47414;DHT22;33163;0.000;0.000;2023-06-14T05:35:20;23.20;49.60
47414;DHT22;33163;0.000;0.000;2023-06-14T05:37:48;23.10;49.70
47414;DHT22;33163;0.000;0.000;2023-06-14T05:40:15;23.00;50.00
47414;DHT22;33163;0.000;0.000;2023-06-14T05:42:44;22.90;50.20
47414;DHT22;33163;0.000;0.000;2023-06-14T05:45:11;22.90;50.60
47414;DHT22;33163;0.000;0.000;2023-06-14T05:47:38;22.80;50.50
47414;DHT22;33163;0.000;0.000;2023-06-14T05:50:05;22.70;50.70
47414;DHT22;33163;0.000;0.000;2023-06-14T05:52:33;22.70;50.80
47414;DHT22;33163;0.000;0.000;2023-06-14T05:55:00;22.60;51.00
47414;DHT22;33163;0.000;0.000;2023-06-14T05:57:26;22.50;51.30
47414;DHT22;33163;0.000;0.000;2023-06-14T05:59:55;22.60;51.40
47414;DHT22;33163;0.000;0.000;2023-06-14T06:02:21;22.60;51.50
47414;DHT22;33163;0.000;0.000;2023-06-14T06:04:48;22.60;52.00
47414;DHT22;33163;0.000;0.000;2023-06-14T06:07:15;22.60;51.90
47414;DHT22;33163;0.000;0.000;2023-06-14T06:09:41;22.60;52.30
47414;DHT22;33163;0.000;0.000;2023-06-14T06:12:09;22.60;52.30
47414;DHT22;33163;0.000;0.000;2023-06-14T06:14:36;22.70;51.80
47414;DHT22;33163;0.000;0.000;2023-06-14T06:17:05;22.60;51.70
47414;DHT22;33163;0.000;0.000;2023-06-14T06:19:32;22.60;51.60
47414;DHT22;33163;0.000;0.000;2023-06-14T06:21:58;22.60;51.60
47414;DHT22;33163;0.000;0.000;2023-06-14T06:24:25;22.70;51.70
47414;DHT22;33163;0.000;0.000;2023-06-14T06:26:52;22.70;51.50
47414;DHT22;33163;0.000;0.000;2023-06-14T06:29:19;22.80;51.50
47414;DHT22;33163;0.000;0.000;2023-06-14T06:31:46;22.80;51.50
47414;DHT22;33163;0.000;0.000;2023-06-14T06:34:14;22.70;51.40
47414;DHT22;33163;0.000;0.000;2023-06-14T06:36:41;22.70;51.40
47414;DHT22;33163;0.000;0.000;2023-06-14T06:39:08;22.80;51.70
47414;DHT22;33163;0.000;0.000;2023-06-14T06:41:36;22.80;51.30
47414;DHT22;33163;0.000;0.000;2023-06-14T06:44:03;22.80;51.40
47414;DHT22;33163;0.000;0.000;2023-06-14T06:46:30;22.90;51.40
47414;DHT22;33163;0.000;0.000;2023-06-14T06:48:57;22.90;51.40
47414;DHT22;33163;0.000;0.000;2023-06-14T06:51:25;23.00;51.40
47414;DHT22;33163;0.000;0.000;2023-06-14T06:53:53;23.00;51.10
47414;DHT22;33163;0.000;0.000;2023-06-14T06:56:20;23.00;51.20
47414;DHT22;33163;0.000;0.000;2023-06-14T06:58:48;23.00;51.00
47414;DHT22;33163;0.000;0.000;2023-06-14T07:01:15;23.00;51.10
47414;DHT22;33163;0.000;0.000;2023-06-14T07:03:42;23.00;51.20
47414;DHT22;33163;0.000;0.000;2023-06-14T07:06:09;23.10;51.50
47414;DHT22;33163;0.000;0.000;2023-06-14T07:08:37;23.10;51.50
47414;DHT22;33163;0.000;0.000;2023-06-14T07:11:05;23.10;51.60
47414;DHT22;33163;0.000;0.000;2023-06-14T07:13:31;23.10;51.60
47414;DHT22;33163;0.000;0.000;2023-06-14T07:15:59;23.10;51.80
47414;DHT22;33163;0.000;0.000;2023-06-14T07:18:26;23.20;51.90
47414;DHT22;33163;0.000;0.000;2023-06-14T07:20:53;23.20;52.00
47414;DHT22;33163;0.000;0.000;2023-06-14T07:23:20;23.20;52.00
47414;DHT22;33163;0.000;0.000;2023-06-14T07:25:48;23.20;52.10
47414;DHT22;33163;0.000;0.000;2023-06-14T07:28:15;23.20;52.20
47414;DHT22;33163;0.000;0.000;2023-06-14T07:30:42;23.20;52.20
47414;DHT22;33163;0.000;0.000;2023-06-14T07:33:09;23.30;52.30
47414;DHT22;33163;0.000;0.000;2023-06-14T07:35:37;23.30;52.40
47414;DHT22;33163;0.000;0.000;2023-06-14T07:38:04;23.30;52.40
47414;DHT22;33163;0.000;0.000;2023-06-14T07:40:31;23.30;52.30
47414;DHT22;33163;0.000;0.000;2023-06-14T07:42:59;23.30;52.20
47414;DHT22;33163;0.000;0.000;2023-06-14T07:45:27;23.30;52.20
47414;DHT22;33163;0.000;0.000;2023-06-14T07:47:53;23.30;52.20
47414;DHT22;33163;0.000;0.000;2023-06-14T07:50:20;23.40;52.20
47414;DHT22;33163;0.000;0.000;2023-06-14T07:52:47;23.40;52.10
47414;DHT22;33163;0.000;0.000;2023-06-14T07:55:14;23.40;52.20
47414;DHT22;33163;0.000;0.000;2023-06-14T07:57:41;23.40;52.10
47414;DHT22;33163;0.000;0.000;2023-06-14T08:00:12;23.40;52.10
47414;DHT22;33163;0.000;0.000;2023-06-14T08:02:41;23.50;52.20
47414;DHT22;33163;0.000;0.000;2023-06-14T08:05:09;23.50;52.20
47414;DHT22;33163;0.000;0.000;2023-06-14T08:07:36;23.50;52.20
47414;DHT22;33163;0.000;0.000;2023-06-14T08:10:03;23.50;52.20
47414;DHT22;33163;0.000;0.000;2023-06-14T08:12:30;23.50;52.90
47414;DHT22;33163;0.000;0.000;2023-06-14T08:14:56;23.50;52.20
47414;DHT22;33163;0.000;0.000;2023-06-14T08:17:24;23.50;52.40
47414;DHT22;33163;0.000;0.000;2023-06-14T08:19:51;23.50;52.50
47414;DHT22;33163;0.000;0.000;2023-06-14T08:22:20;23.50;52.50
47414;DHT22;33163;0.000;0.000;2023-06-14T08:24:47;23.50;52.50
47414;DHT22;33163;0.000;0.000;2023-06-14T08:27:14;23.60;52.60
47414;DHT22;33163;0.000;0.000;2023-06-14T08:29:41;23.60;52.70
47414;DHT22;33163;0.000;0.000;2023-06-14T08:32:09;23.60;52.70
47414;DHT22;33163;0.000;0.000;2023-06-14T08:34:37;23.60;52.70
47414;DHT22;33163;0.000;0.000;2023-06-14T08:37:04;23.60;52.70
47414;DHT22;33163;0.000;0.000;2023-06-14T08:39:32;23.60;52.80
47414;DHT22;33163;0.000;0.000;2023-06-14T08:42:00;23.60;52.80
47414;DHT22;33163;0.000;0.000;2023-06-14T08:44:27;23.70;52.80
47414;DHT22;33163;0.000;0.000;2023-06-14T08:46:55;23.70;52.80
47414;DHT22;33163;0.000;0.000;2023-06-14T08:49:23;23.70;52.70
47414;DHT22;33163;0.000;0.000;2023-06-14T08:51:57;23.70;52.70
47414;DHT22;33163;0.000;0.000;2023-06-14T08:54:25;23.70;52.80
47414;DHT22;33163;0.000;0.000;2023-06-14T08:56:55;23.70;52.70
47414;DHT22;33163;0.000;0.000;2023-06-14T08:59:24;23.70;52.80
47414;DHT22;33163;0.000;0.000;2023-06-14T09:01:52;23.70;52.70
47414;DHT22;33163;0.000;0.000;2023-06-14T09:04:20;23.80;52.80
47414;DHT22;33163;0.000;0.000;2023-06-14T09:06:47;23.80;52.80
47414;DHT22;33163;0.000;0.000;2023-06-14T09:09:19;23.80;52.80
47414;DHT22;33163;0.000;0.000;2023-06-14T09:11:46;23.80;52.80
47414;DHT22;33163;0.000;0.000;2023-06-14T09:14:13;23.80;52.90
47414;DHT22;33163;0.000;0.000;2023-06-14T09:16:40;23.80;52.80
47414;DHT22;33163;0.000;0.000;2023-06-14T09:19:07;23.90;52.90
47414;DHT22;33163;0.000;0.000;2023-06-14T09:21:34;23.90;52.90
47414;DHT22;33163;0.000;0.000;2023-06-14T09:24:01;23.90;52.90
47414;DHT22;33163;0.000;0.000;2023-06-14T09:26:31;23.90;52.80
47414;DHT22;33163;0.000;0.000;2023-06-14T09:28:58;24.00;52.80
47414;DHT22;33163;0.000;0.000;2023-06-14T09:31:25;23.90;52.80
47414;DHT22;33163;0.000;0.000;2023-06-14T09:33:57;23.90;52.70
47414;DHT22;33163;0.000;0.000;2023-06-14T09:36:25;24.00;52.80
47414;DHT22;33163;0.000;0.000;2023-06-14T09:38:53;24.00;52.80
47414;DHT22;33163;0.000;0.000;2023-06-14T09:41:20;24.00;52.70
47414;DHT22;33163;0.000;0.000;2023-06-14T09:43:48;24.00;52.70
47414;DHT22;33163;0.000;0.000;2023-06-14T09:46:16;24.00;52.70
47414;DHT22;33163;0.000;0.000;2023-06-14T09:48:43;24.00;52.60
47414;DHT22;33163;0.000;0.000;2023-06-14T09:51:10;24.00;52.60
47414;DHT22;33163;0.000;0.000;2023-06-14T09:53:41;24.00;52.60
47414;DHT22;33163;0.000;0.000;2023-06-14T09:56:09;24.10;52.60
47414;DHT22;33163;0.000;0.000;2023-06-14T09:58:38;24.10;52.60
47414;DHT22;33163;0.000;0.000;2023-06-14T10:01:08;24.10;52.60
47414;DHT22;33163;0.000;0.000;2023-06-14T10:03:39;24.10;52.60
47414;DHT22;33163;0.000;0.000;2023-06-14T10:06:08;24.10;52.50
47414;DHT22;33163;0.000;0.000;2023-06-14T10:08:36;24.20;52.50
47414;DHT22;33163;0.000;0.000;2023-06-14T10:11:04;24.20;52.50
47414;DHT22;33163;0.000;0.000;2023-06-14T10:13:32;24.20;52.50
47414;DHT22;33163;0.000;0.000;2023-06-14T10:16:05;24.20;52.50
47414;DHT22;33163;0.000;0.000;2023-06-14T10:18:40;24.20;52.50
47414;DHT22;33163;0.000;0.000;2023-06-14T10:21:16;24.20;52.40
47414;DHT22;33163;0.000;0.000;2023-06-14T10:23:44;24.20;52.40
47414;DHT22;33163;0.000;0.000;2023-06-14T10:26:18;24.20;52.40
47414;DHT22;33163;0.000;0.000;2023-06-14T10:28:55;24.20;52.30
47414;DHT22;33163;0.000;0.000;2023-06-14T10:31:23;24.30;52.30
47414;DHT22;33163;0.000;0.000;2023-06-14T10:34:07;24.30;52.30
47414;DHT22;33163;0.000;0.000;2023-06-14T10:36:33;24.30;52.30
47414;DHT22;33163;0.000;0.000;2023-06-14T10:39:04;24.30;52.20
47414;DHT22;33163;0.000;0.000;2023-06-14T10:41:34;24.30;52.10
47414;DHT22;33163;0.000;0.000;2023-06-14T10:47:10;24.30;52.00
47414;DHT22;33163;0.000;0.000;2023-06-14T10:49:44;24.40;52.10
47414;DHT22;33163;0.000;0.000;2023-06-14T10:52:12;24.40;52.10
47414;DHT22;33163;0.000;0.000;2023-06-14T10:55:01;24.30;52.00
47414;DHT22;33163;0.000;0.000;2023-06-14T10:57:30;24.40;52.00
47414;DHT22;33163;0.000;0.000;2023-06-14T10:59:58;24.40;52.00
47414;DHT22;33163;0.000;0.000;2023-06-14T11:03:01;24.40;52.00
47414;DHT22;33163;0.000;0.000;2023-06-14T11:05:43;24.50;52.10
47414;DHT22;33163;0.000;0.000;2023-06-14T11:08:27;24.50;52.10
47414;DHT22;33163;0.000;0.000;2023-06-14T11:10:57;24.40;52.00
47414;DHT22;33163;0.000;0.000;2023-06-14T11:13:26;24.50;52.10
47414;DHT22;33163;0.000;0.000;2023-06-14T11:15:53;24.50;52.10
47414;DHT22;33163;0.000;0.000;2023-06-14T11:18:22;24.50;52.00
47414;DHT22;33163;0.000;0.000;2023-06-14T11:20:53;24.50;51.90
47414;DHT22;33163;0.000;0.000;2023-06-14T11:23:21;24.50;51.90
47414;DHT22;33163;0.000;0.000;2023-06-14T11:25:50;24.50;51.80
47414;DHT22;33163;0.000;0.000;2023-06-14T11:28:17;24.50;51.80
47414;DHT22;33163;0.000;0.000;2023-06-14T11:30:45;24.50;51.90
47414;DHT22;33163;0.000;0.000;2023-06-14T11:33:16;24.50;51.80
47414;DHT22;33163;0.000;0.000;2023-06-14T11:35:43;24.50;51.70
47414;DHT22;33163;0.000;0.000;2023-06-14T11:38:12;24.50;51.80
47414;DHT22;33163;0.000;0.000;2023-06-14T11:40:39;24.60;51.80
47414;DHT22;33163;0.000;0.000;2023-06-14T11:43:06;24.60;51.70
47414;DHT22;33163;0.000;0.000;2023-06-14T11:45:32;24.60;51.60
47414;DHT22;33163;0.000;0.000;2023-06-14T11:47:59;24.60;51.60
47414;DHT22;33163;0.000;0.000;2023-06-14T11:50:28;24.60;51.60
47414;DHT22;33163;0.000;0.000;2023-06-14T11:52:56;24.60;51.60
47414;DHT22;33163;0.000;0.000;2023-06-14T11:55:24;24.60;51.60
47414;DHT22;33163;0.000;0.000;2023-06-14T11:57:53;24.60;51.50
47414;DHT22;33163;0.000;0.000;2023-06-14T12:00:24;24.60;51.50
47414;DHT22;33163;0.000;0.000;2023-06-14T12:02:54;24.60;51.50
47414;DHT22;33163;0.000;0.000;2023-06-14T12:05:21;24.60;51.50
47414;DHT22;33163;0.000;0.000;2023-06-14T12:07:48;24.60;51.50
47414;DHT22;33163;0.000;0.000;2023-06-14T12:10:16;24.60;51.40
47414;DHT22;33163;0.000;0.000;2023-06-14T12:12:44;24.60;51.30
47414;DHT22;33163;0.000;0.000;2023-06-14T12:15:11;24.60;51.50
47414;DHT22;33163;0.000;0.000;2023-06-14T12:17:38;24.60;51.30
47414;DHT22;33163;0.000;0.000;2023-06-14T12:20:09;24.60;51.40
47414;DHT22;33163;0.000;0.000;2023-06-14T12:22:46;24.60;51.30
47414;DHT22;33163;0.000;0.000;2023-06-14T12:25:22;24.60;51.20
47414;DHT22;33163;0.000;0.000;2023-06-14T12:27:54;24.60;51.30
47414;DHT22;33163;0.000;0.000;2023-06-14T12:30:20;24.60;51.20
47414;DHT22;33163;0.000;0.000;2023-06-14T12:32:47;24.60;51.20
47414;DHT22;33163;0.000;0.000;2023-06-14T12:35:16;24.60;51.10
47414;DHT22;33163;0.000;0.000;2023-06-14T12:37:43;24.60;51.20
47414;DHT22;33163;0.000;0.000;2023-06-14T12:40:11;24.60;51.20
47414;DHT22;33163;0.000;0.000;2023-06-14T12:42:38;24.60;51.10
47414;DHT22;33163;0.000;0.000;2023-06-14T12:45:07;24.60;51.10
47414;DHT22;33163;0.000;0.000;2023-06-14T12:47:34;24.60;51.10
47414;DHT22;33163;0.000;0.000;2023-06-14T12:50:01;24.60;51.00
47414;DHT22;33163;0.000;0.000;2023-06-14T12:52:28;24.60;50.90
47414;DHT22;33163;0.000;0.000;2023-06-14T12:54:55;24.60;50.90
47414;DHT22;33163;0.000;0.000;2023-06-14T12:57:23;24.60;50.90
47414;DHT22;33163;0.000;0.000;2023-06-14T12:59:50;24.60;50.80
47414;DHT22;33163;0.000;0.000;2023-06-14T13:02:19;24.60;50.80
47414;DHT22;33163;0.000;0.000;2023-06-14T13:04:47;24.60;50.70
47414;DHT22;33163;0.000;0.000;2023-06-14T13:07:14;24.60;50.60
47414;DHT22;33163;0.000;0.000;2023-06-14T13:09:41;24.60;50.40
47414;DHT22;33163;0.000;0.000;2023-06-14T13:12:09;24.60;50.40
47414;DHT22;33163;0.000;0.000;2023-06-14T13:14:37;24.60;50.40
47414;DHT22;33163;0.000;0.000;2023-06-14T13:17:05;24.60;50.40
47414;DHT22;33163;0.000;0.000;2023-06-14T13:19:33;24.50;50.30
47414;DHT22;33163;0.000;0.000;2023-06-14T13:22:00;24.60;50.30
47414;DHT22;33163;0.000;0.000;2023-06-14T13:24:27;24.60;50.40
47414;DHT22;33163;0.000;0.000;2023-06-14T13:26:55;24.60;50.90
47414;DHT22;33163;0.000;0.000;2023-06-14T13:29:22;24.60;50.10
47414;DHT22;33163;0.000;0.000;2023-06-14T13:31:49;24.50;49.90
47414;DHT22;33163;0.000;0.000;2023-06-14T13:34:17;24.50;49.80
47414;DHT22;33163;0.000;0.000;2023-06-14T13:36:45;24.50;50.40
47414;DHT22;33163;0.000;0.000;2023-06-14T13:39:12;24.50;50.60
47414;DHT22;33163;0.000;0.000;2023-06-14T13:41:39;24.50;50.80
47414;DHT22;33163;0.000;0.000;2023-06-14T13:44:06;24.50;50.60
47414;DHT22;33163;0.000;0.000;2023-06-14T13:46:33;24.60;50.90
47414;DHT22;33163;0.000;0.000;2023-06-14T13:49:00;24.60;50.80
47414;DHT22;33163;0.000;0.000;2023-06-14T13:51:27;24.60;50.90
47414;DHT22;33163;0.000;0.000;2023-06-14T13:53:55;24.60;51.00
47414;DHT22;33163;0.000;0.000;2023-06-14T13:56:22;24.50;51.10
47414;DHT22;33163;0.000;0.000;2023-06-14T13:58:50;24.60;51.20
47414;DHT22;33163;0.000;0.000;2023-06-14T14:01:17;24.60;51.20
47414;DHT22;33163;0.000;0.000;2023-06-14T14:03:45;24.50;51.20
47414;DHT22;33163;0.000;0.000;2023-06-14T14:06:13;24.60;51.40
47414;DHT22;33163;0.000;0.000;2023-06-14T14:08:39;24.60;51.40
47414;DHT22;33163;0.000;0.000;2023-06-14T14:11:08;24.50;51.40
47414;DHT22;33163;0.000;0.000;2023-06-14T14:13:35;24.50;51.40
47414;DHT22;33163;0.000;0.000;2023-06-14T14:16:04;24.50;51.40
47414;DHT22;33163;0.000;0.000;2023-06-14T14:18:31;24.60;51.50
47414;DHT22;33163;0.000;0.000;2023-06-14T14:20:59;24.60;51.60
47414;DHT22;33163;0.000;0.000;2023-06-14T14:23:28;24.60;51.60
47414;DHT22;33163;0.000;0.000;2023-06-14T14:25:56;24.60;51.60
47414;DHT22;33163;0.000;0.000;2023-06-14T14:28:24;24.50;51.50
47414;DHT22;33163;0.000;0.000;2023-06-14T14:30:51;24.60;51.50
47414;DHT22;33163;0.000;0.000;2023-06-14T14:33:19;24.60;51.60
47414;DHT22;33163;0.000;0.000;2023-06-14T14:35:46;24.50;51.50
47414;DHT22;33163;0.000;0.000;2023-06-14T14:38:13;24.60;51.40
47414;DHT22;33163;0.000;0.000;2023-06-14T14:40:41;24.60;51.40
47414;DHT22;33163;0.000;0.000;2023-06-14T14:43:08;24.50;51.60
47414;DHT22;33163;0.000;0.000;2023-06-14T14:45:36;24.50;51.50
47414;DHT22;33163;0.000;0.000;2023-06-14T14:48:03;24.50;51.50
47414;DHT22;33163;0.000;0.000;2023-06-14T14:50:30;24.50;51.50
47414;DHT22;33163;0.000;0.000;2023-06-14T14:52:57;24.50;51.50
47414;DHT22;33163;0.000;0.000;2023-06-14T14:55:24;24.50;51.50
47414;DHT22;33163;0.000;0.000;2023-06-14T14:57:51;24.50;51.40
47414;DHT22;33163;0.000;0.000;2023-06-14T15:00:18;24.50;51.40
47414;DHT22;33163;0.000;0.000;2023-06-14T15:02:47;24.50;51.40
47414;DHT22;33163;0.000;0.000;2023-06-14T15:05:14;24.50;51.40
47414;DHT22;33163;0.000;0.000;2023-06-14T15:07:40;24.50;51.40
47414;DHT22;33163;0.000;0.000;2023-06-14T15:10:08;24.50;51.50
47414;DHT22;33163;0.000;0.000;2023-06-14T15:12:35;24.50;51.50
47414;DHT22;33163;0.000;0.000;2023-06-14T15:15:02;24.50;51.30
47414;DHT22;33163;0.000;0.000;2023-06-14T15:17:29;24.50;50.80
47414;DHT22;33163;0.000;0.000;2023-06-14T15:19:57;24.50;51.10
47414;DHT22;33163;0.000;0.000;2023-06-14T15:22:24;24.40;51.10
47414;DHT22;33163;0.000;0.000;2023-06-14T15:24:51;24.50;51.30
47414;DHT22;33163;0.000;0.000;2023-06-14T15:27:17;24.50;51.50
47414;DHT22;33163;0.000;0.000;2023-06-14T15:29:45;24.40;51.30
47414;DHT22;33163;0.000;0.000;2023-06-14T15:32:12;24.50;51.20
47414;DHT22;33163;0.000;0.000;2023-06-14T15:34:39;24.50;51.00
47414;DHT22;33163;0.000;0.000;2023-06-14T15:37:07;24.50;50.90
47414;DHT22;33163;0.000;0.000;2023-06-14T15:39:34;24.50;51.00
47414;DHT22;33163;0.000;0.000;2023-06-14T15:42:02;24.50;51.10
47414;DHT22;33163;0.000;0.000;2023-06-14T15:44:28;24.50;51.40
47414;DHT22;33163;0.000;0.000;2023-06-14T15:46:55;24.50;50.80
47414;DHT22;33163;0.000;0.000;2023-06-14T15:49:22;24.40;50.90
47414;DHT22;33163;0.000;0.000;2023-06-14T15:51:49;24.50;51.30